CheckWX is a tool to help pilots better visualize weather data.  It is not intended as a substitute for an official pre-flight weather briefing.

17:09:38 UTC

CYQG METAR
Windsor Airport
Windsor, Canada
Current

58 mins ago

CYQG 211612Z AUTO 05011KT 9SM SCT018 BKN027 24/20 A2996 RMK SLP143 DENSITY ALT 1800FT
Observed
Jul-21 @ 16:12 UTC
Wind
  • 050° at 11 KTS
Visibility
9 SM
Flight Rules
MVFR
Cloud Levels
  • Scattered at 1,800' AGL
  • Broken at 2,700' AGL
Temperature
24°C / 75°F
Dewpoint
20°C / 68°F
Humidity
78%
Altimeter
29.96" Hg
Pressure
1014.52 hPa
Previous

1 hour ago

CYQG 211600Z AUTO 06009KT 9SM BKN018 25/21 A2996 RMK SLP142 DENSITY ALT 1800FT
Observed
Jul-21 @ 16:00 UTC
Wind
  • 060° at 9 KTS
Visibility
9 SM
Flight Rules
MVFR
Cloud Levels
  • Broken at 1,800' AGL
Temperature
25°C / 77°F
Dewpoint
21°C / 70°F
Humidity
79%
Altimeter
29.96" Hg
Pressure
1014.52 hPa
Previous

1 hour ago

CYQG 211551Z AUTO 06006KT 040V110 9SM BKN021 BKN210 25/21 A2996 RMK SLP142 DENSITY ALT 1800FT
Observed
Jul-21 @ 15:51 UTC
Wind
  • 060° at 6 KTS
Visibility
9 SM
Flight Rules
MVFR
Cloud Levels
  • Broken at 2,100' AGL
  • Broken at 21,000' AGL
Temperature
25°C / 77°F
Dewpoint
21°C / 70°F
Humidity
79%
Altimeter
29.96" Hg
Pressure
1014.52 hPa